Flight Number: EUR1533 Duration: 1:30
Departure: Barra Airport (EGPR) at 08:15 Distance: 272 Nm
Arrival: Liverpool Airport (EGGP) at 09:45 Equipment: B1900D

Weather Information
404 Not Found

Not Found

The requested URL /data/observations/metar/decoded/EGPR.TXT was not found on this server.


Sunrise: 03:59 Sunset: 20:53 (UTC)

Liverpool Airport , United Kingdom (EGGP) 53-20N 002-51W May 24, 2018 - 05:20 PM EDT / 2018.05.24 2120 UTC
Wind: from the NE (040 degrees) at 13 MPH (11 KT):0
Visibility: greater than 7 mile(s):0 Temperature: 62 F (17 C) Dew Point: 50 F (10 C) Relative Humidity: 63% Pressure (altimeter): 30.15 in. Hg (1021 hPa)
ob: EGGP 242120Z 04011KT CAVOK 17/10 Q1021 cycle: 21
Sunrise: 04:02 Sunset: 20:13 (UTC)

TAF:2018/05/24 18:15 TAF EGGP 241703Z 2418/2518 06009KT 9999 FEW045 TEMPO 2505/2518 7000 SHRA BKN012 PROB30 TEMPO 2506/2513 3000 +SHRA

Previous Pireps for this route
Date Aircraft Flight time Fuel used Landing rate On time
2015-05-09B1900D01.391005-381Charter
2016-02-28B1900D01.12981-386Yes
2016-10-11B1900D01.121066-181No
2018-04-04B1900D1.341188-630Yes
(pireps marked green are flown by you)

Route map